createdAt,value
2022-08-11T05:15:20.342Z,26.60
2022-08-11T05:18:13.101Z,26.90
2022-08-11T05:21:04.845Z,27.40
2022-08-11T05:23:39.257Z,27.70
2022-08-11T06:46:00.472Z,26.10
2022-08-11T06:48:36.471Z,26.00
2022-08-11T06:51:08.403Z,25.30
2022-08-11T06:53:39.096Z,24.70
2022-08-11T06:56:08.587Z,24.30
2022-08-11T06:58:40.131Z,24.00
2022-08-11T07:01:17.152Z,23.80
2022-08-11T07:03:48.222Z,23.80
2022-08-11T07:06:36.585Z,23.80
2022-08-11T07:09:33.420Z,23.80
2022-08-11T07:12:06.268Z,24.00
2022-08-11T07:14:38.360Z,24.00
2022-08-11T07:17:10.504Z,23.90
2022-08-11T07:19:40.766Z,24.00
2022-08-11T07:22:11.612Z,24.00
2022-08-11T07:24:59.099Z,23.90
2022-08-11T07:27:37.662Z,23.90
2022-08-11T07:30:08.910Z,24.00
2022-08-11T07:32:45.064Z,24.10
2022-08-11T07:35:20.401Z,24.30
2022-08-11T07:38:01.745Z,24.40
2022-08-11T07:40:30.692Z,24.50
2022-08-11T07:43:00.347Z,24.50
2022-08-11T07:45:28.840Z,24.80
2022-08-11T07:48:00.890Z,24.80
2022-08-11T07:50:28.731Z,24.90
2022-08-11T07:52:59.819Z,24.90
2022-08-11T07:55:50.194Z,25.00
2022-08-11T07:58:20.232Z,25.00
2022-08-11T08:00:54.665Z,25.20
2022-08-11T08:03:22.943Z,25.40
2022-08-11T08:05:51.198Z,25.50
2022-08-11T08:08:18.948Z,25.70
2022-08-11T08:10:46.308Z,25.80
2022-08-11T08:13:14.086Z,25.90
2022-08-11T08:15:42.428Z,25.90
2022-08-11T08:18:26.900Z,26.00
2022-08-11T08:20:57.079Z,26.10
2022-08-11T08:23:32.078Z,26.30
2022-08-11T08:26:01.763Z,26.40
2022-08-11T08:28:32.486Z,26.40
2022-08-11T08:31:00.647Z,26.60
2022-08-11T08:33:37.772Z,26.80
2022-08-11T08:36:06.315Z,26.90
2022-08-11T08:38:33.573Z,27.00
2022-08-11T08:41:01.435Z,27.00
2022-08-11T08:43:29.368Z,27.20
2022-08-11T08:45:57.650Z,27.30
2022-08-11T08:48:27.853Z,27.30
2022-08-11T08:51:01.711Z,27.40
2022-08-11T08:53:34.834Z,27.60
2022-08-11T08:56:03.488Z,27.70
2022-08-11T08:58:33.331Z,27.80
2022-08-11T09:01:01.657Z,27.90
2022-08-11T09:04:04.612Z,27.70
2022-08-11T09:06:17.335Z,27.90
2022-08-11T09:08:45.364Z,27.90
2022-08-11T09:11:14.514Z,28.10
2022-08-11T09:16:11.530Z,28.30
2022-08-11T09:18:41.427Z,28.40
2022-08-11T09:21:09.019Z,28.50
2022-08-11T09:26:30.755Z,28.50
2022-08-11T09:29:00.560Z,28.60
2022-08-11T09:31:34.615Z,28.50
2022-08-11T09:34:06.297Z,28.80
2022-08-11T09:36:34.102Z,28.80
2022-08-11T09:39:04.899Z,28.60
2022-08-11T09:42:23.818Z,28.70
2022-08-11T09:44:21.322Z,28.50
2022-08-11T09:46:50.336Z,28.90
